Главная страница
METAR-TAF:

METAR-TAF

Аэропорты :

Каракас, Венесуэла

широта: 10-36N, долгота: 066-59W, высота над уровнем моря: 43 м

Текущие метеонаблюдения

Эта сводка был подготовлена 43 минут назад, в 22:00 UTC
Ветер 6 Узел от северо-восточный
Температура 25°C
Влажность 79%
Давление 1014 hPa
Видимость 10 км и более
Рассеянная облачность на высоте 1600 фута

METAR: SVMI 222200Z 05006KT 9999 BKN016 25/21 Q1014

Время: 18:43 (22:43 UTC)

Прогноз

Эта сводка был подготовлена 6 часа и 43 минут назад, в 16:00 UTC
Прогноз действительный с 22-го 18 UTC до 23-го 18 UTC
Ветер 8 Узел от северо-восточный
Видимость 10 км и более
небольшая облачность на высоте 1600 фута
изменения
С 22-го 18 UTC до 22-го 22 UTC
Ветер 12 Узел от северо-восточный
Отдельные облака на высоте 1600 фута

TAF: SVMI 221600Z 2218/2318 05008KT 9999 FEW016 TX32/18Z TN23/07Z BECMG 2218/2222 05012KT SCT016

Метеонаблюдения и прогнозы для более 4000 аэропортов (сводки METAR и TAF).

Имеющиеся станции представлены на карте желтыми и красными точками.

Чтобы увидеть название станции, наведите на нее мышь.

Затем щелкните, чтобы увидеть метеонаблюдения и метеопрогнозы.

Управление картой: чтобы увеличить масштаб, щелкните зеленые кнопки с черным крестиком; чтобы уменьшить масштаб, щелкните зеленую кнопку с тире; для просмотра соседних карт щелкайте зеленые стрелки.


METAR-TAF: